sensor_id;sensor_type;location;lat;lon;timestamp;P1;durP1;ratioP1;P2;durP2;ratioP2
1308;SDS011;647;48.840;9.314;2024-03-02T00:00:49;72.17;;;16.40;;
1308;SDS011;647;48.840;9.314;2024-03-02T00:03:16;68.40;;;15.77;;
1308;SDS011;647;48.840;9.314;2024-03-02T00:05:43;71.40;;;15.60;;
1308;SDS011;647;48.840;9.314;2024-03-02T00:08:11;69.73;;;15.93;;
1308;SDS011;647;48.840;9.314;2024-03-02T00:10:40;72.13;;;15.23;;
1308;SDS011;647;48.840;9.314;2024-03-02T00:13:09;77.33;;;19.23;;
1308;SDS011;647;48.840;9.314;2024-03-02T00:15:46;77.80;;;17.50;;
1308;SDS011;647;48.840;9.314;2024-03-02T00:18:14;78.50;;;18.43;;
1308;SDS011;647;48.840;9.314;2024-03-02T00:20:41;74.13;;;17.10;;
1308;SDS011;647;48.840;9.314;2024-03-02T00:23:08;71.53;;;15.60;;
1308;SDS011;647;48.840;9.314;2024-03-02T00:25:37;73.63;;;16.77;;
1308;SDS011;647;48.840;9.314;2024-03-02T00:28:05;72.57;;;17.50;;
1308;SDS011;647;48.840;9.314;2024-03-02T00:30:44;77.37;;;17.30;;
1308;SDS011;647;48.840;9.314;2024-03-02T00:33:14;72.53;;;16.30;;
1308;SDS011;647;48.840;9.314;2024-03-02T00:35:43;72.23;;;15.53;;
1308;SDS011;647;48.840;9.314;2024-03-02T00:38:10;74.37;;;14.67;;
1308;SDS011;647;48.840;9.314;2024-03-02T00:40:38;71.30;;;17.50;;
1308;SDS011;647;48.840;9.314;2024-03-02T00:43:05;70.20;;;14.90;;
1308;SDS011;647;48.840;9.314;2024-03-02T00:45:32;67.63;;;14.40;;
1308;SDS011;647;48.840;9.314;2024-03-02T00:48:01;71.55;;;15.10;;
1308;SDS011;647;48.840;9.314;2024-03-02T00:50:29;75.93;;;15.40;;
1308;SDS011;647;48.840;9.314;2024-03-02T00:52:57;73.30;;;15.77;;
1308;SDS011;647;48.840;9.314;2024-03-02T00:55:25;73.97;;;16.33;;
1308;SDS011;647;48.840;9.314;2024-03-02T00:57:51;69.17;;;14.37;;
1308;SDS011;647;48.840;9.314;2024-03-02T01:00:19;69.97;;;14.70;;
1308;SDS011;647;48.840;9.314;2024-03-02T01:02:46;70.70;;;14.93;;
1308;SDS011;647;48.840;9.314;2024-03-02T01:05:14;71.70;;;15.73;;
1308;SDS011;647;48.840;9.314;2024-03-02T01:07:41;68.70;;;13.80;;
1308;SDS011;647;48.840;9.314;2024-03-02T01:10:09;73.37;;;16.03;;
1308;SDS011;647;48.840;9.314;2024-03-02T01:12:36;71.67;;;15.23;;
1308;SDS011;647;48.840;9.314;2024-03-02T01:15:04;73.27;;;16.80;;
1308;SDS011;647;48.840;9.314;2024-03-02T01:17:33;71.83;;;12.93;;
1308;SDS011;647;48.840;9.314;2024-03-02T01:20:00;70.70;;;13.50;;
1308;SDS011;647;48.840;9.314;2024-03-02T01:22:29;72.93;;;15.50;;
1308;SDS011;647;48.840;9.314;2024-03-02T01:24:56;69.90;;;14.90;;
1308;SDS011;647;48.840;9.314;2024-03-02T01:27:23;72.10;;;16.53;;
1308;SDS011;647;48.840;9.314;2024-03-02T01:29:52;70.43;;;14.97;;
1308;SDS011;647;48.840;9.314;2024-03-02T01:32:19;75.67;;;14.93;;
1308;SDS011;647;48.840;9.314;2024-03-02T01:34:46;70.40;;;15.70;;
1308;SDS011;647;48.840;9.314;2024-03-02T01:37:13;69.27;;;14.00;;
1308;SDS011;647;48.840;9.314;2024-03-02T01:39:42;70.73;;;14.93;;
1308;SDS011;647;48.840;9.314;2024-03-02T01:42:09;69.90;;;15.03;;
1308;SDS011;647;48.840;9.314;2024-03-02T01:44:36;70.67;;;13.93;;
1308;SDS011;647;48.840;9.314;2024-03-02T01:47:03;73.38;;;14.13;;
1308;SDS011;647;48.840;9.314;2024-03-02T01:49:30;71.00;;;14.60;;
1308;SDS011;647;48.840;9.314;2024-03-02T01:51:59;67.78;;;13.02;;
1308;SDS011;647;48.840;9.314;2024-03-02T01:54:26;71.00;;;15.47;;
1308;SDS011;647;48.840;9.314;2024-03-02T01:56:54;66.67;;;13.57;;
1308;SDS011;647;48.840;9.314;2024-03-02T01:59:21;70.13;;;13.95;;
1308;SDS011;647;48.840;9.314;2024-03-02T02:01:48;72.00;;;15.60;;
1308;SDS011;647;48.840;9.314;2024-03-02T02:04:15;69.87;;;14.20;;
1308;SDS011;647;48.840;9.314;2024-03-02T02:06:43;69.10;;;13.87;;
1308;SDS011;647;48.840;9.314;2024-03-02T02:09:10;71.17;;;14.43;;
1308;SDS011;647;48.840;9.314;2024-03-02T02:11:38;70.13;;;15.47;;
1308;SDS011;647;48.840;9.314;2024-03-02T02:14:07;69.40;;;14.80;;
1308;SDS011;647;48.840;9.314;2024-03-02T02:16:34;70.18;;;13.38;;
1308;SDS011;647;48.840;9.314;2024-03-02T02:19:01;67.90;;;12.80;;
1308;SDS011;647;48.840;9.314;2024-03-02T02:21:30;68.70;;;12.90;;
1308;SDS011;647;48.840;9.314;2024-03-02T02:23:57;69.13;;;13.70;;
1308;SDS011;647;48.840;9.314;2024-03-02T02:26:24;69.35;;;12.85;;
1308;SDS011;647;48.840;9.314;2024-03-02T02:28:51;73.75;;;15.52;;
1308;SDS011;647;48.840;9.314;2024-03-02T02:31:18;67.80;;;13.43;;
1308;SDS011;647;48.840;9.314;2024-03-02T02:33:45;70.30;;;15.40;;
1308;SDS011;647;48.840;9.314;2024-03-02T02:36:12;70.47;;;15.10;;
1308;SDS011;647;48.840;9.314;2024-03-02T02:38:42;70.18;;;13.48;;
1308;SDS011;647;48.840;9.314;2024-03-02T02:41:10;74.93;;;14.88;;
1308;SDS011;647;48.840;9.314;2024-03-02T02:43:37;69.18;;;13.60;;
1308;SDS011;647;48.840;9.314;2024-03-02T02:46:04;69.45;;;13.98;;
1308;SDS011;647;48.840;9.314;2024-03-02T02:48:32;70.85;;;13.80;;
1308;SDS011;647;48.840;9.314;2024-03-02T02:50:59;75.43;;;15.25;;
1308;SDS011;647;48.840;9.314;2024-03-02T02:53:26;72.75;;;16.40;;
1308;SDS011;647;48.840;9.314;2024-03-02T02:55:54;75.30;;;15.73;;
1308;SDS011;647;48.840;9.314;2024-03-02T02:58:21;73.55;;;15.40;;
1308;SDS011;647;48.840;9.314;2024-03-02T03:00:49;74.33;;;15.90;;
1308;SDS011;647;48.840;9.314;2024-03-02T03:03:16;73.37;;;15.70;;
1308;SDS011;647;48.840;9.314;2024-03-02T03:05:43;75.45;;;15.85;;
1308;SDS011;647;48.840;9.314;2024-03-02T03:08:10;77.55;;;16.40;;
1308;SDS011;647;48.840;9.314;2024-03-02T03:10:37;74.15;;;15.50;;
1308;SDS011;647;48.840;9.314;2024-03-02T03:13:06;71.90;;;16.02;;
1308;SDS011;647;48.840;9.314;2024-03-02T03:15:34;72.65;;;16.92;;
1308;SDS011;647;48.840;9.314;2024-03-02T03:18:01;72.53;;;16.10;;
1308;SDS011;647;48.840;9.314;2024-03-02T03:20:29;69.97;;;13.48;;
1308;SDS011;647;48.840;9.314;2024-03-02T03:22:56;72.90;;;15.07;;
1308;SDS011;647;48.840;9.314;2024-03-02T03:25:24;73.30;;;15.10;;
1308;SDS011;647;48.840;9.314;2024-03-02T03:27:51;73.15;;;16.30;;
1308;SDS011;647;48.840;9.314;2024-03-02T03:30:19;70.60;;;13.93;;
1308;SDS011;647;48.840;9.314;2024-03-02T03:32:46;70.35;;;14.60;;
1308;SDS011;647;48.840;9.314;2024-03-02T03:35:14;76.80;;;16.45;;
1308;SDS011;647;48.840;9.314;2024-03-02T03:37:41;71.43;;;14.65;;
1308;SDS011;647;48.840;9.314;2024-03-02T03:40:08;70.55;;;15.13;;
1308;SDS011;647;48.840;9.314;2024-03-02T03:42:36;73.63;;;14.82;;
1308;SDS011;647;48.840;9.314;2024-03-02T03:45:03;70.97;;;14.05;;
1308;SDS011;647;48.840;9.314;2024-03-02T03:47:32;69.68;;;14.80;;
1308;SDS011;647;48.840;9.314;2024-03-02T03:49:59;69.85;;;13.85;;
1308;SDS011;647;48.840;9.314;2024-03-02T03:52:28;70.30;;;14.88;;
1308;SDS011;647;48.840;9.314;2024-03-02T03:54:55;73.80;;;14.95;;
1308;SDS011;647;48.840;9.314;2024-03-02T03:57:22;73.03;;;15.30;;
1308;SDS011;647;48.840;9.314;2024-03-02T03:59:49;72.65;;;14.70;;
1308;SDS011;647;48.840;9.314;2024-03-02T04:02:16;69.90;;;14.05;;
1308;SDS011;647;48.840;9.314;2024-03-02T04:04:44;68.50;;;13.65;;
1308;SDS011;647;48.840;9.314;2024-03-02T04:07:12;71.90;;;14.35;;
1308;SDS011;647;48.840;9.314;2024-03-02T04:09:39;70.70;;;14.98;;
1308;SDS011;647;48.840;9.314;2024-03-02T04:12:06;74.47;;;14.35;;
1308;SDS011;647;48.840;9.314;2024-03-02T04:14:33;70.05;;;14.02;;
1308;SDS011;647;48.840;9.314;2024-03-02T04:17:00;75.75;;;15.05;;
1308;SDS011;647;48.840;9.314;2024-03-02T04:19:27;70.97;;;14.77;;
1308;SDS011;647;48.840;9.314;2024-03-02T04:21:56;72.38;;;15.15;;
1308;SDS011;647;48.840;9.314;2024-03-02T04:24:23;72.80;;;13.70;;
1308;SDS011;647;48.840;9.314;2024-03-02T04:26:50;72.18;;;15.88;;
1308;SDS011;647;48.840;9.314;2024-03-02T04:29:17;73.43;;;14.85;;
1308;SDS011;647;48.840;9.314;2024-03-02T04:31:44;70.85;;;13.88;;
1308;SDS011;647;48.840;9.314;2024-03-02T04:34:11;70.20;;;13.77;;
1308;SDS011;647;48.840;9.314;2024-03-02T04:36:38;70.10;;;13.20;;
1308;SDS011;647;48.840;9.314;2024-03-02T04:39:06;72.53;;;14.40;;
1308;SDS011;647;48.840;9.314;2024-03-02T04:41:35;72.15;;;14.35;;
1308;SDS011;647;48.840;9.314;2024-03-02T04:44:02;72.45;;;14.27;;
1308;SDS011;647;48.840;9.314;2024-03-02T04:46:29;73.00;;;14.90;;
1308;SDS011;647;48.840;9.314;2024-03-02T04:48:58;69.43;;;13.82;;
1308;SDS011;647;48.840;9.314;2024-03-02T04:51:25;70.85;;;13.00;;
1308;SDS011;647;48.840;9.314;2024-03-02T04:53:52;75.85;;;15.48;;
1308;SDS011;647;48.840;9.314;2024-03-02T04:56:20;72.40;;;14.50;;
1308;SDS011;647;48.840;9.314;2024-03-02T04:59:08;74.13;;;13.93;;
1308;SDS011;647;48.840;9.314;2024-03-02T05:01:35;71.45;;;15.30;;
1308;SDS011;647;48.840;9.314;2024-03-02T05:04:03;70.95;;;14.00;;
1308;SDS011;647;48.840;9.314;2024-03-02T05:06:30;72.65;;;15.32;;
1308;SDS011;647;48.840;9.314;2024-03-02T05:08:57;70.85;;;14.93;;
1308;SDS011;647;48.840;9.314;2024-03-02T05:11:25;67.38;;;12.55;;
1308;SDS011;647;48.840;9.314;2024-03-02T05:14:15;68.65;;;13.05;;
1308;SDS011;647;48.840;9.314;2024-03-02T05:16:42;68.43;;;12.90;;
1308;SDS011;647;48.840;9.314;2024-03-02T05:19:09;72.45;;;14.30;;
1308;SDS011;647;48.840;9.314;2024-03-02T05:21:36;70.85;;;13.65;;
1308;SDS011;647;48.840;9.314;2024-03-02T05:24:03;71.15;;;13.25;;
1308;SDS011;647;48.840;9.314;2024-03-02T05:26:32;72.45;;;14.48;;
1308;SDS011;647;48.840;9.314;2024-03-02T05:28:59;76.70;;;14.05;;
1308;SDS011;647;48.840;9.314;2024-03-02T05:31:26;70.35;;;15.32;;
1308;SDS011;647;48.840;9.314;2024-03-02T05:33:53;69.57;;;13.95;;
1308;SDS011;647;48.840;9.314;2024-03-02T05:36:20;73.80;;;14.77;;
1308;SDS011;647;48.840;9.314;2024-03-02T05:38:47;70.63;;;13.82;;
1308;SDS011;647;48.840;9.314;2024-03-02T05:41:14;70.00;;;13.73;;
1308;SDS011;647;48.840;9.314;2024-03-02T05:43:43;70.85;;;12.82;;
1308;SDS011;647;48.840;9.314;2024-03-02T05:46:11;71.88;;;14.20;;
1308;SDS011;647;48.840;9.314;2024-03-02T05:48:41;71.95;;;13.60;;
1308;SDS011;647;48.840;9.314;2024-03-02T05:51:08;73.18;;;14.60;;
1308;SDS011;647;48.840;9.314;2024-03-02T05:53:35;67.65;;;13.80;;
1308;SDS011;647;48.840;9.314;2024-03-02T05:56:04;74.47;;;15.10;;
1308;SDS011;647;48.840;9.314;2024-03-02T05:58:31;74.25;;;13.20;;
1308;SDS011;647;48.840;9.314;2024-03-02T06:01:12;70.75;;;13.82;;
1308;SDS011;647;48.840;9.314;2024-03-02T06:03:39;73.70;;;14.77;;
1308;SDS011;647;48.840;9.314;2024-03-02T06:06:06;75.95;;;14.20;;
1308;SDS011;647;48.840;9.314;2024-03-02T06:08:33;74.57;;;15.60;;
1308;SDS011;647;48.840;9.314;2024-03-02T06:11:01;73.93;;;14.90;;
1308;SDS011;647;48.840;9.314;2024-03-02T06:13:28;71.75;;;14.00;;
1308;SDS011;647;48.840;9.314;2024-03-02T06:15:55;73.53;;;13.85;;
1308;SDS011;647;48.840;9.314;2024-03-02T06:18:23;72.15;;;15.00;;
1308;SDS011;647;48.840;9.314;2024-03-02T06:20:50;75.05;;;14.35;;
1308;SDS011;647;48.840;9.314;2024-03-02T06:23:17;73.60;;;15.80;;
1308;SDS011;647;48.840;9.314;2024-03-02T06:25:45;72.20;;;15.80;;
1308;SDS011;647;48.840;9.314;2024-03-02T06:28:12;73.63;;;15.05;;
1308;SDS011;647;48.840;9.314;2024-03-02T06:30:40;73.57;;;14.95;;
1308;SDS011;647;48.840;9.314;2024-03-02T06:33:07;72.10;;;13.75;;
1308;SDS011;647;48.840;9.314;2024-03-02T06:35:35;73.72;;;14.85;;
1308;SDS011;647;48.840;9.314;2024-03-02T06:38:03;74.20;;;15.70;;
1308;SDS011;647;48.840;9.314;2024-03-02T06:40:30;73.03;;;14.93;;
1308;SDS011;647;48.840;9.314;2024-03-02T06:42:57;73.22;;;16.15;;
1308;SDS011;647;48.840;9.314;2024-03-02T06:45:24;78.20;;;17.60;;
1308;SDS011;647;48.840;9.314;2024-03-02T06:47:51;74.35;;;16.88;;
1308;SDS011;647;48.840;9.314;2024-03-02T06:50:18;75.70;;;18.17;;
1308;SDS011;647;48.840;9.314;2024-03-02T06:52:47;79.05;;;19.48;;
1308;SDS011;647;48.840;9.314;2024-03-02T06:55:14;75.07;;;17.50;;
1308;SDS011;647;48.840;9.314;2024-03-02T06:57:41;73.95;;;16.40;;
1308;SDS011;647;48.840;9.314;2024-03-02T07:00:08;75.57;;;16.55;;
1308;SDS011;647;48.840;9.314;2024-03-02T07:02:36;76.47;;;16.17;;
1308;SDS011;647;48.840;9.314;2024-03-02T07:05:03;74.68;;;16.85;;
1308;SDS011;647;48.840;9.314;2024-03-02T07:07:32;76.43;;;17.50;;
1308;SDS011;647;48.840;9.314;2024-03-02T07:10:01;77.32;;;15.95;;
1308;SDS011;647;48.840;9.314;2024-03-02T07:12:28;73.25;;;15.02;;
1308;SDS011;647;48.840;9.314;2024-03-02T07:14:56;75.57;;;15.97;;
1308;SDS011;647;48.840;9.314;2024-03-02T07:17:43;72.50;;;15.57;;
1308;SDS011;647;48.840;9.314;2024-03-02T07:20:11;73.70;;;15.20;;
1308;SDS011;647;48.840;9.314;2024-03-02T07:22:38;77.60;;;16.42;;
1308;SDS011;647;48.840;9.314;2024-03-02T07:25:06;76.45;;;16.42;;
1308;SDS011;647;48.840;9.314;2024-03-02T07:27:33;73.82;;;17.27;;
1308;SDS011;647;48.840;9.314;2024-03-02T07:30:01;73.55;;;15.65;;
1308;SDS011;647;48.840;9.314;2024-03-02T07:32:28;78.18;;;15.60;;
1308;SDS011;647;48.840;9.314;2024-03-02T07:34:55;76.00;;;15.10;;
1308;SDS011;647;48.840;9.314;2024-03-02T07:37:22;76.10;;;16.77;;
1308;SDS011;647;48.840;9.314;2024-03-02T07:39:50;76.40;;;16.57;;
1308;SDS011;647;48.840;9.314;2024-03-02T07:42:18;75.40;;;16.90;;
1308;SDS011;647;48.840;9.314;2024-03-02T07:44:45;75.22;;;17.13;;
1308;SDS011;647;48.840;9.314;2024-03-02T07:47:13;76.03;;;17.08;;
1308;SDS011;647;48.840;9.314;2024-03-02T07:49:40;77.87;;;16.90;;
1308;SDS011;647;48.840;9.314;2024-03-02T07:52:07;75.38;;;16.58;;
1308;SDS011;647;48.840;9.314;2024-03-02T07:54:34;73.50;;;15.23;;
1308;SDS011;647;48.840;9.314;2024-03-02T07:57:01;71.95;;;16.98;;
1308;SDS011;647;48.840;9.314;2024-03-02T07:59:30;80.57;;;17.40;;
1308;SDS011;647;48.840;9.314;2024-03-02T08:01:57;74.90;;;16.23;;
1308;SDS011;647;48.840;9.314;2024-03-02T08:04:24;73.10;;;16.37;;
1308;SDS011;647;48.840;9.314;2024-03-02T08:06:51;78.80;;;15.27;;
1308;SDS011;647;48.840;9.314;2024-03-02T08:09:19;77.23;;;16.73;;
1308;SDS011;647;48.840;9.314;2024-03-02T08:11:46;77.47;;;16.03;;
1308;SDS011;647;48.840;9.314;2024-03-02T08:14:14;74.30;;;15.80;;
1308;SDS011;647;48.840;9.314;2024-03-02T08:16:42;73.70;;;15.80;;
1308;SDS011;647;48.840;9.314;2024-03-02T08:19:09;72.10;;;16.40;;
1308;SDS011;647;48.840;9.314;2024-03-02T08:21:36;70.87;;;14.43;;
1308;SDS011;647;48.840;9.314;2024-03-02T08:24:04;76.90;;;15.83;;
1308;SDS011;647;48.840;9.314;2024-03-02T08:26:31;74.10;;;15.87;;
1308;SDS011;647;48.840;9.314;2024-03-02T08:28:58;73.57;;;14.87;;
1308;SDS011;647;48.840;9.314;2024-03-02T08:31:26;74.57;;;15.90;;
1308;SDS011;647;48.840;9.314;2024-03-02T08:33:55;68.33;;;13.60;;
1308;SDS011;647;48.840;9.314;2024-03-02T08:36:23;72.97;;;15.33;;
1308;SDS011;647;48.840;9.314;2024-03-02T08:38:51;72.30;;;16.00;;
1308;SDS011;647;48.840;9.314;2024-03-02T08:41:18;71.70;;;15.07;;
1308;SDS011;647;48.840;9.314;2024-03-02T08:43:45;71.67;;;14.70;;
1308;SDS011;647;48.840;9.314;2024-03-02T08:46:12;70.23;;;14.27;;
1308;SDS011;647;48.840;9.314;2024-03-02T08:48:40;69.90;;;14.17;;
1308;SDS011;647;48.840;9.314;2024-03-02T08:51:08;70.53;;;14.77;;
1308;SDS011;647;48.840;9.314;2024-03-02T08:53:35;72.47;;;14.60;;
1308;SDS011;647;48.840;9.314;2024-03-02T08:56:02;68.83;;;13.70;;
1308;SDS011;647;48.840;9.314;2024-03-02T08:58:30;71.90;;;13.47;;
1308;SDS011;647;48.840;9.314;2024-03-02T09:00:57;71.50;;;13.00;;
1308;SDS011;647;48.840;9.314;2024-03-02T09:03:24;68.37;;;12.50;;
1308;SDS011;647;48.840;9.314;2024-03-02T09:05:52;71.30;;;15.33;;
1308;SDS011;647;48.840;9.314;2024-03-02T09:08:20;69.77;;;12.57;;
1308;SDS011;647;48.840;9.314;2024-03-02T09:10:47;68.57;;;12.97;;
1308;SDS011;647;48.840;9.314;2024-03-02T09:13:14;68.83;;;13.03;;
1308;SDS011;647;48.840;9.314;2024-03-02T09:15:41;66.43;;;11.90;;
1308;SDS011;647;48.840;9.314;2024-03-02T09:18:09;65.90;;;10.80;;
1308;SDS011;647;48.840;9.314;2024-03-02T09:20:36;67.37;;;11.40;;
1308;SDS011;647;48.840;9.314;2024-03-02T09:23:03;65.40;;;10.57;;
1308;SDS011;647;48.840;9.314;2024-03-02T09:25:32;63.60;;;9.27;;
1308;SDS011;647;48.840;9.314;2024-03-02T09:27:59;64.00;;;8.40;;
1308;SDS011;647;48.840;9.314;2024-03-02T09:30:26;61.10;;;7.77;;
1308;SDS011;647;48.840;9.314;2024-03-02T09:32:53;61.00;;;7.30;;
1308;SDS011;647;48.840;9.314;2024-03-02T09:35:20;60.83;;;7.10;;
1308;SDS011;647;48.840;9.314;2024-03-02T09:37:48;61.00;;;7.53;;
1308;SDS011;647;48.840;9.314;2024-03-02T09:40:16;60.50;;;7.00;;
1308;SDS011;647;48.840;9.314;2024-03-02T09:42:44;59.57;;;6.07;;
1308;SDS011;647;48.840;9.314;2024-03-02T09:45:17;61.93;;;6.00;;
1308;SDS011;647;48.840;9.314;2024-03-02T09:47:45;60.00;;;5.40;;
1308;SDS011;647;48.840;9.314;2024-03-02T09:50:12;58.67;;;5.50;;
1308;SDS011;647;48.840;9.314;2024-03-02T09:52:39;61.47;;;6.90;;
1308;SDS011;647;48.840;9.314;2024-03-02T09:55:07;60.40;;;5.47;;
1308;SDS011;647;48.840;9.314;2024-03-02T09:57:35;59.90;;;5.63;;
1308;SDS011;647;48.840;9.314;2024-03-02T10:00:04;58.70;;;5.30;;
1308;SDS011;647;48.840;9.314;2024-03-02T10:02:31;59.27;;;5.90;;
1308;SDS011;647;48.840;9.314;2024-03-02T10:04:58;60.77;;;5.70;;
1308;SDS011;647;48.840;9.314;2024-03-02T10:07:25;59.87;;;6.00;;
1308;SDS011;647;48.840;9.314;2024-03-02T10:09:52;60.07;;;5.90;;
1308;SDS011;647;48.840;9.314;2024-03-02T10:12:19;60.70;;;6.60;;
1308;SDS011;647;48.840;9.314;2024-03-02T10:14:47;61.07;;;5.63;;
1308;SDS011;647;48.840;9.314;2024-03-02T10:17:17;58.47;;;5.23;;
1308;SDS011;647;48.840;9.314;2024-03-02T10:19:45;58.70;;;4.87;;
1308;SDS011;647;48.840;9.314;2024-03-02T10:22:12;58.97;;;4.70;;
1308;SDS011;647;48.840;9.314;2024-03-02T10:24:41;58.60;;;4.80;;
1308;SDS011;647;48.840;9.314;2024-03-02T10:27:09;58.37;;;4.50;;
1308;SDS011;647;48.840;9.314;2024-03-02T10:29:40;60.17;;;5.10;;
1308;SDS011;647;48.840;9.314;2024-03-02T10:32:10;57.00;;;3.97;;
1308;SDS011;647;48.840;9.314;2024-03-02T10:34:39;58.07;;;4.23;;
1308;SDS011;647;48.840;9.314;2024-03-02T10:37:06;58.13;;;4.10;;
1308;SDS011;647;48.840;9.314;2024-03-02T10:39:34;58.00;;;4.10;;
1308;SDS011;647;48.840;9.314;2024-03-02T10:42:01;57.87;;;4.20;;
1308;SDS011;647;48.840;9.314;2024-03-02T10:44:29;57.93;;;3.90;;
1308;SDS011;647;48.840;9.314;2024-03-02T10:46:58;57.20;;;3.90;;
1308;SDS011;647;48.840;9.314;2024-03-02T10:49:27;57.57;;;4.20;;
1308;SDS011;647;48.840;9.314;2024-03-02T10:51:55;59.37;;;3.30;;
1308;SDS011;647;48.840;9.314;2024-03-02T10:54:23;58.67;;;3.80;;
1308;SDS011;647;48.840;9.314;2024-03-02T10:56:54;57.40;;;3.77;;
1308;SDS011;647;48.840;9.314;2024-03-02T10:59:24;56.93;;;3.40;;
1308;SDS011;647;48.840;9.314;2024-03-02T11:01:55;56.17;;;2.93;;
1308;SDS011;647;48.840;9.314;2024-03-02T11:04:22;58.50;;;3.40;;
1308;SDS011;647;48.840;9.314;2024-03-02T11:06:51;57.30;;;3.60;;
1308;SDS011;647;48.840;9.314;2024-03-02T11:09:21;56.73;;;3.70;;
1308;SDS011;647;48.840;9.314;2024-03-02T11:11:49;56.90;;;3.90;;
1308;SDS011;647;48.840;9.314;2024-03-02T11:14:21;57.00;;;3.30;;
1308;SDS011;647;48.840;9.314;2024-03-02T11:16:50;56.40;;;3.17;;
1308;SDS011;647;48.840;9.314;2024-03-02T11:19:19;57.30;;;3.63;;
1308;SDS011;647;48.840;9.314;2024-03-02T11:21:47;57.20;;;3.50;;
1308;SDS011;647;48.840;9.314;2024-03-02T11:24:31;56.47;;;3.07;;
1308;SDS011;647;48.840;9.314;2024-03-02T11:26:59;56.40;;;3.00;;
1308;SDS011;647;48.840;9.314;2024-03-02T11:29:42;56.90;;;3.60;;
1308;SDS011;647;48.840;9.314;2024-03-02T11:32:13;57.07;;;2.80;;
1308;SDS011;647;48.840;9.314;2024-03-02T11:34:40;56.80;;;3.33;;
1308;SDS011;647;48.840;9.314;2024-03-02T11:37:10;56.60;;;3.10;;
1308;SDS011;647;48.840;9.314;2024-03-02T11:39:39;56.60;;;3.73;;
1308;SDS011;647;48.840;9.314;2024-03-02T11:42:06;56.40;;;3.60;;
1308;SDS011;647;48.840;9.314;2024-03-02T11:44:34;56.50;;;3.07;;
1308;SDS011;647;48.840;9.314;2024-03-02T11:47:02;57.10;;;3.33;;
1308;SDS011;647;48.840;9.314;2024-03-02T11:49:37;56.17;;;2.63;;
1308;SDS011;647;48.840;9.314;2024-03-02T11:52:05;55.90;;;3.10;;
1308;SDS011;647;48.840;9.314;2024-03-02T11:54:33;56.87;;;2.83;;
1308;SDS011;647;48.840;9.314;2024-03-02T11:57:02;55.70;;;2.40;;
1308;SDS011;647;48.840;9.314;2024-03-02T11:59:29;55.50;;;2.57;;
1308;SDS011;647;48.840;9.314;2024-03-02T12:01:57;56.10;;;2.80;;
1308;SDS011;647;48.840;9.314;2024-03-02T12:04:25;55.33;;;2.30;;
1308;SDS011;647;48.840;9.314;2024-03-02T12:06:54;55.30;;;2.30;;
1308;SDS011;647;48.840;9.314;2024-03-02T12:09:21;55.70;;;2.50;;
1308;SDS011;647;48.840;9.314;2024-03-02T12:11:56;55.20;;;2.27;;
1308;SDS011;647;48.840;9.314;2024-03-02T12:14:29;55.57;;;2.27;;
1308;SDS011;647;48.840;9.314;2024-03-02T12:16:56;55.40;;;2.37;;
1308;SDS011;647;48.840;9.314;2024-03-02T12:19:23;56.33;;;2.50;;
1308;SDS011;647;48.840;9.314;2024-03-02T12:21:50;55.90;;;2.23;;
1308;SDS011;647;48.840;9.314;2024-03-02T12:24:17;57.27;;;2.40;;
1308;SDS011;647;48.840;9.314;2024-03-02T12:26:45;56.20;;;2.70;;
1308;SDS011;647;48.840;9.314;2024-03-02T12:29:13;55.97;;;2.80;;
1308;SDS011;647;48.840;9.314;2024-03-02T12:31:41;56.83;;;3.77;;
1308;SDS011;647;48.840;9.314;2024-03-02T12:34:10;56.43;;;2.60;;
1308;SDS011;647;48.840;9.314;2024-03-02T12:36:38;57.50;;;2.53;;
1308;SDS011;647;48.840;9.314;2024-03-02T12:39:06;55.93;;;2.40;;
1308;SDS011;647;48.840;9.314;2024-03-02T12:41:35;55.87;;;2.43;;
1308;SDS011;647;48.840;9.314;2024-03-02T12:44:02;55.50;;;2.20;;
1308;SDS011;647;48.840;9.314;2024-03-02T12:46:29;55.40;;;2.30;;
1308;SDS011;647;48.840;9.314;2024-03-02T12:48:58;56.07;;;2.80;;
1308;SDS011;647;48.840;9.314;2024-03-02T12:51:26;55.90;;;2.30;;
1308;SDS011;647;48.840;9.314;2024-03-02T12:53:54;55.50;;;2.40;;
1308;SDS011;647;48.840;9.314;2024-03-02T12:56:21;55.63;;;2.23;;
1308;SDS011;647;48.840;9.314;2024-03-02T12:58:52;55.33;;;2.13;;
1308;SDS011;647;48.840;9.314;2024-03-02T13:01:19;55.90;;;2.23;;
1308;SDS011;647;48.840;9.314;2024-03-02T13:03:47;56.87;;;3.67;;
1308;SDS011;647;48.840;9.314;2024-03-02T13:06:16;55.23;;;2.27;;
1308;SDS011;647;48.840;9.314;2024-03-02T13:08:44;56.63;;;2.60;;
1308;SDS011;647;48.840;9.314;2024-03-02T13:11:11;55.87;;;2.40;;
1308;SDS011;647;48.840;9.314;2024-03-02T13:13:39;55.30;;;2.40;;
1308;SDS011;647;48.840;9.314;2024-03-02T13:16:07;55.70;;;2.10;;
1308;SDS011;647;48.840;9.314;2024-03-02T13:18:35;55.47;;;2.00;;
1308;SDS011;647;48.840;9.314;2024-03-02T13:21:02;56.87;;;2.40;;
1308;SDS011;647;48.840;9.314;2024-03-02T13:23:31;55.50;;;2.17;;
1308;SDS011;647;48.840;9.314;2024-03-02T13:25:58;55.47;;;2.17;;
1308;SDS011;647;48.840;9.314;2024-03-02T13:28:25;56.77;;;2.40;;
1308;SDS011;647;48.840;9.314;2024-03-02T13:30:52;55.30;;;2.40;;
1308;SDS011;647;48.840;9.314;2024-03-02T13:33:19;57.87;;;2.40;;
1308;SDS011;647;48.840;9.314;2024-03-02T13:35:47;55.20;;;2.00;;
1308;SDS011;647;48.840;9.314;2024-03-02T13:38:15;58.10;;;2.50;;
1308;SDS011;647;48.840;9.314;2024-03-02T13:40:44;56.33;;;2.27;;
1308;SDS011;647;48.840;9.314;2024-03-02T13:43:12;55.20;;;1.97;;
1308;SDS011;647;48.840;9.314;2024-03-02T13:45:39;55.30;;;2.30;;
1308;SDS011;647;48.840;9.314;2024-03-02T13:48:07;56.00;;;2.43;;
1308;SDS011;647;48.840;9.314;2024-03-02T13:50:34;55.90;;;2.40;;
1308;SDS011;647;48.840;9.314;2024-03-02T13:53:01;55.67;;;2.30;;
1308;SDS011;647;48.840;9.314;2024-03-02T13:55:29;54.77;;;2.20;;
1308;SDS011;647;48.840;9.314;2024-03-02T13:57:58;59.00;;;2.57;;
1308;SDS011;647;48.840;9.314;2024-03-02T14:00:25;56.23;;;2.40;;
1308;SDS011;647;48.840;9.314;2024-03-02T14:02:52;55.47;;;2.30;;
1308;SDS011;647;48.840;9.314;2024-03-02T14:05:19;55.47;;;2.13;;
1308;SDS011;647;48.840;9.314;2024-03-02T14:07:46;54.93;;;2.20;;
1308;SDS011;647;48.840;9.314;2024-03-02T14:10:13;56.07;;;2.00;;
1308;SDS011;647;48.840;9.314;2024-03-02T14:12:40;55.50;;;2.00;;
1308;SDS011;647;48.840;9.314;2024-03-02T14:15:09;55.03;;;1.83;;
1308;SDS011;647;48.840;9.314;2024-03-02T14:17:36;55.80;;;2.30;;
1308;SDS011;647;48.840;9.314;2024-03-02T14:20:03;55.90;;;2.30;;
1308;SDS011;647;48.840;9.314;2024-03-02T14:22:31;55.47;;;2.47;;
1308;SDS011;647;48.840;9.314;2024-03-02T14:24:59;55.50;;;2.30;;
1308;SDS011;647;48.840;9.314;2024-03-02T14:27:26;55.10;;;2.00;;
1308;SDS011;647;48.840;9.314;2024-03-02T14:29:53;55.07;;;2.10;;
1308;SDS011;647;48.840;9.314;2024-03-02T14:32:21;55.37;;;2.17;;
1308;SDS011;647;48.840;9.314;2024-03-02T14:34:48;55.60;;;2.07;;
1308;SDS011;647;48.840;9.314;2024-03-02T14:37:16;55.40;;;2.10;;
1308;SDS011;647;48.840;9.314;2024-03-02T14:39:43;55.60;;;1.93;;
1308;SDS011;647;48.840;9.314;2024-03-02T14:42:10;55.67;;;2.33;;
1308;SDS011;647;48.840;9.314;2024-03-02T14:44:37;55.40;;;1.93;;
1308;SDS011;647;48.840;9.314;2024-03-02T14:47:04;55.47;;;2.17;;
1308;SDS011;647;48.840;9.314;2024-03-02T14:49:33;55.77;;;2.37;;
1308;SDS011;647;48.840;9.314;2024-03-02T14:52:03;55.33;;;2.10;;
1308;SDS011;647;48.840;9.314;2024-03-02T14:54:30;55.50;;;2.40;;
1308;SDS011;647;48.840;9.314;2024-03-02T14:56:57;55.67;;;2.10;;
1308;SDS011;647;48.840;9.314;2024-03-02T14:59:24;56.83;;;2.20;;
1308;SDS011;647;48.840;9.314;2024-03-02T15:01:53;57.03;;;2.40;;
1308;SDS011;647;48.840;9.314;2024-03-02T15:04:20;56.60;;;2.40;;
1308;SDS011;647;48.840;9.314;2024-03-02T15:06:48;55.93;;;2.13;;
1308;SDS011;647;48.840;9.314;2024-03-02T15:09:15;55.80;;;2.43;;
1308;SDS011;647;48.840;9.314;2024-03-02T15:11:43;56.40;;;2.30;;